sensor_id;sensor_type;location;lat;lon;timestamp;temperature;humidity
76172;DHT22;64929;51.178;4.138;2023-04-15T00:01:20;12.30;71.80
76172;DHT22;64929;51.178;4.138;2023-04-15T00:03:49;12.40;71.70
76172;DHT22;64929;51.178;4.138;2023-04-15T00:06:15;12.30;71.20
76172;DHT22;64929;51.178;4.138;2023-04-15T00:08:41;12.40;71.20
76172;DHT22;64929;51.178;4.138;2023-04-15T00:11:06;12.40;71.60
76172;DHT22;64929;51.178;4.138;2023-04-15T00:13:32;12.50;71.30
76172;DHT22;64929;51.178;4.138;2023-04-15T00:15:59;12.60;71.00
76172;DHT22;64929;51.178;4.138;2023-04-15T00:18:25;12.60;71.20
76172;DHT22;64929;51.178;4.138;2023-04-15T00:20:51;12.50;71.00
76172;DHT22;64929;51.178;4.138;2023-04-15T00:23:17;12.50;71.10
76172;DHT22;64929;51.178;4.138;2023-04-15T00:25:42;12.40;71.50
76172;DHT22;64929;51.178;4.138;2023-04-15T00:28:09;12.40;71.50
76172;DHT22;64929;51.178;4.138;2023-04-15T00:30:34;12.40;72.10
76172;DHT22;64929;51.178;4.138;2023-04-15T00:33:00;12.40;73.40
76172;DHT22;64929;51.178;4.138;2023-04-15T00:35:29;12.40;72.30
76172;DHT22;64929;51.178;4.138;2023-04-15T00:37:57;12.40;73.30
76172;DHT22;64929;51.178;4.138;2023-04-15T00:40:23;12.40;74.40
76172;DHT22;64929;51.178;4.138;2023-04-15T00:42:49;12.20;72.80
76172;DHT22;64929;51.178;4.138;2023-04-15T00:45:15;12.20;74.70
76172;DHT22;64929;51.178;4.138;2023-04-15T00:47:42;12.30;75.10
76172;DHT22;64929;51.178;4.138;2023-04-15T00:50:08;12.20;73.10
76172;DHT22;64929;51.178;4.138;2023-04-15T00:52:34;12.20;74.90
76172;DHT22;64929;51.178;4.138;2023-04-15T00:55:00;12.20;74.40
76172;DHT22;64929;51.178;4.138;2023-04-15T00:57:27;12.00;74.50
76172;DHT22;64929;51.178;4.138;2023-04-15T00:59:55;12.00;76.10
76172;DHT22;64929;51.178;4.138;2023-04-15T01:02:21;12.20;74.90
76172;DHT22;64929;51.178;4.138;2023-04-15T01:04:47;12.50;73.30
76172;DHT22;64929;51.178;4.138;2023-04-15T01:07:13;12.30;74.60
76172;DHT22;64929;51.178;4.138;2023-04-15T01:09:39;12.00;75.70
76172;DHT22;64929;51.178;4.138;2023-04-15T01:12:05;11.60;78.30
76172;DHT22;64929;51.178;4.138;2023-04-15T01:14:32;11.70;78.50
76172;DHT22;64929;51.178;4.138;2023-04-15T01:16:58;11.90;76.60
76172;DHT22;64929;51.178;4.138;2023-04-15T01:19:24;11.90;76.50
76172;DHT22;64929;51.178;4.138;2023-04-15T01:21:50;12.00;76.60
76172;DHT22;64929;51.178;4.138;2023-04-15T01:24:17;11.90;77.00
76172;DHT22;64929;51.178;4.138;2023-04-15T01:26:44;11.90;77.50
76172;DHT22;64929;51.178;4.138;2023-04-15T01:29:11;11.60;79.80
76172;DHT22;64929;51.178;4.138;2023-04-15T01:31:37;11.50;81.40
76172;DHT22;64929;51.178;4.138;2023-04-15T01:34:03;11.60;79.70
76172;DHT22;64929;51.178;4.138;2023-04-15T01:36:29;11.40;79.20
76172;DHT22;64929;51.178;4.138;2023-04-15T01:38:55;11.60;78.60
76172;DHT22;64929;51.178;4.138;2023-04-15T01:41:26;11.50;79.50
76172;DHT22;64929;51.178;4.138;2023-04-15T01:43:52;11.50;79.80
76172;DHT22;64929;51.178;4.138;2023-04-15T01:46:18;11.50;79.80
76172;DHT22;64929;51.178;4.138;2023-04-15T01:48:44;11.60;78.30
76172;DHT22;64929;51.178;4.138;2023-04-15T01:51:10;11.70;78.40
76172;DHT22;64929;51.178;4.138;2023-04-15T01:53:36;11.60;80.00
76172;DHT22;64929;51.178;4.138;2023-04-15T01:56:02;11.50;81.30
76172;DHT22;64929;51.178;4.138;2023-04-15T01:58:28;11.40;80.50
76172;DHT22;64929;51.178;4.138;2023-04-15T02:00:54;11.50;81.20
76172;DHT22;64929;51.178;4.138;2023-04-15T02:03:20;11.50;81.40
76172;DHT22;64929;51.178;4.138;2023-04-15T02:05:46;11.60;82.00
76172;DHT22;64929;51.178;4.138;2023-04-15T02:08:11;11.60;82.00
76172;DHT22;64929;51.178;4.138;2023-04-15T02:10:38;11.70;81.20
76172;DHT22;64929;51.178;4.138;2023-04-15T02:13:03;11.60;81.90
76172;DHT22;64929;51.178;4.138;2023-04-15T02:15:29;11.50;82.40
76172;DHT22;64929;51.178;4.138;2023-04-15T02:17:55;11.40;82.60
76172;DHT22;64929;51.178;4.138;2023-04-15T02:20:21;11.40;81.40
76172;DHT22;64929;51.178;4.138;2023-04-15T02:22:47;11.50;81.50
76172;DHT22;64929;51.178;4.138;2023-04-15T02:25:14;11.50;81.40
76172;DHT22;64929;51.178;4.138;2023-04-15T02:27:41;11.30;81.90
76172;DHT22;64929;51.178;4.138;2023-04-15T02:30:08;11.50;82.30
76172;DHT22;64929;51.178;4.138;2023-04-15T02:32:34;11.60;81.30
76172;DHT22;64929;51.178;4.138;2023-04-15T02:35:06;11.60;80.90
76172;DHT22;64929;51.178;4.138;2023-04-15T02:37:32;11.70;80.40
76172;DHT22;64929;51.178;4.138;2023-04-15T02:40:01;11.70;81.00
76172;DHT22;64929;51.178;4.138;2023-04-15T02:42:27;11.60;81.80
76172;DHT22;64929;51.178;4.138;2023-04-15T02:44:55;11.40;82.10
76172;DHT22;64929;51.178;4.138;2023-04-15T02:47:20;11.40;81.80
76172;DHT22;64929;51.178;4.138;2023-04-15T02:49:46;11.30;82.30
76172;DHT22;64929;51.178;4.138;2023-04-15T02:52:12;11.40;82.70
76172;DHT22;64929;51.178;4.138;2023-04-15T02:54:38;11.50;82.60
76172;DHT22;64929;51.178;4.138;2023-04-15T02:57:04;11.30;82.90
76172;DHT22;64929;51.178;4.138;2023-04-15T02:59:31;11.30;82.50
76172;DHT22;64929;51.178;4.138;2023-04-15T03:01:56;11.30;82.90
76172;DHT22;64929;51.178;4.138;2023-04-15T03:04:25;11.50;81.90
76172;DHT22;64929;51.178;4.138;2023-04-15T03:06:51;11.50;81.90
76172;DHT22;64929;51.178;4.138;2023-04-15T03:09:17;11.50;81.90
76172;DHT22;64929;51.178;4.138;2023-04-15T03:11:42;11.40;82.80
76172;DHT22;64929;51.178;4.138;2023-04-15T03:14:08;11.30;84.00
76172;DHT22;64929;51.178;4.138;2023-04-15T03:16:34;11.20;84.20
76172;DHT22;64929;51.178;4.138;2023-04-15T03:18:59;11.20;84.40
76172;DHT22;64929;51.178;4.138;2023-04-15T03:21:25;11.30;84.30
76172;DHT22;64929;51.178;4.138;2023-04-15T03:23:51;11.30;84.00
76172;DHT22;64929;51.178;4.138;2023-04-15T03:26:27;11.30;84.10
76172;DHT22;64929;51.178;4.138;2023-04-15T03:28:54;11.40;84.50
76172;DHT22;64929;51.178;4.138;2023-04-15T03:31:20;11.60;84.30
76172;DHT22;64929;51.178;4.138;2023-04-15T03:33:46;11.60;83.20
76172;DHT22;64929;51.178;4.138;2023-04-15T03:36:11;11.70;82.90
76172;DHT22;64929;51.178;4.138;2023-04-15T03:38:37;11.50;83.90
76172;DHT22;64929;51.178;4.138;2023-04-15T03:41:03;11.50;84.00
76172;DHT22;64929;51.178;4.138;2023-04-15T03:43:28;11.50;85.30
76172;DHT22;64929;51.178;4.138;2023-04-15T03:45:54;11.40;85.20
76172;DHT22;64929;51.178;4.138;2023-04-15T03:48:19;11.40;85.40
76172;DHT22;64929;51.178;4.138;2023-04-15T03:50:46;11.30;85.90
76172;DHT22;64929;51.178;4.138;2023-04-15T03:53:11;11.20;85.70
76172;DHT22;64929;51.178;4.138;2023-04-15T03:55:37;11.10;86.00
76172;DHT22;64929;51.178;4.138;2023-04-15T03:58:02;11.20;85.20
76172;DHT22;64929;51.178;4.138;2023-04-15T04:00:28;11.00;85.80
76172;DHT22;64929;51.178;4.138;2023-04-15T04:02:54;11.10;86.00
76172;DHT22;64929;51.178;4.138;2023-04-15T04:05:19;11.20;85.50
76172;DHT22;64929;51.178;4.138;2023-04-15T04:07:45;11.20;86.00
76172;DHT22;64929;51.178;4.138;2023-04-15T04:10:12;11.30;86.60
76172;DHT22;64929;51.178;4.138;2023-04-15T04:12:37;11.20;86.10
76172;DHT22;64929;51.178;4.138;2023-04-15T04:15:04;11.40;85.40
76172;DHT22;64929;51.178;4.138;2023-04-15T04:17:29;11.30;85.20
76172;DHT22;64929;51.178;4.138;2023-04-15T04:19:55;11.40;85.50
76172;DHT22;64929;51.178;4.138;2023-04-15T04:22:22;11.40;85.10
76172;DHT22;64929;51.178;4.138;2023-04-15T04:24:48;11.40;83.60
76172;DHT22;64929;51.178;4.138;2023-04-15T04:27:14;11.30;84.70
76172;DHT22;64929;51.178;4.138;2023-04-15T04:29:40;11.20;85.20
76172;DHT22;64929;51.178;4.138;2023-04-15T04:32:06;11.20;84.10
76172;DHT22;64929;51.178;4.138;2023-04-15T04:34:31;11.20;82.20
76172;DHT22;64929;51.178;4.138;2023-04-15T04:36:57;11.00;82.70
76172;DHT22;64929;51.178;4.138;2023-04-15T04:39:23;11.10;84.30
76172;DHT22;64929;51.178;4.138;2023-04-15T04:41:49;11.20;84.30
76172;DHT22;64929;51.178;4.138;2023-04-15T04:44:16;11.00;85.10
76172;DHT22;64929;51.178;4.138;2023-04-15T04:46:42;11.10;83.90
76172;DHT22;64929;51.178;4.138;2023-04-15T04:49:08;11.10;84.10
76172;DHT22;64929;51.178;4.138;2023-04-15T04:51:34;11.30;82.10
76172;DHT22;64929;51.178;4.138;2023-04-15T04:54:00;11.10;81.20
76172;DHT22;64929;51.178;4.138;2023-04-15T04:56:25;11.00;82.10
76172;DHT22;64929;51.178;4.138;2023-04-15T04:58:51;11.10;83.20
76172;DHT22;64929;51.178;4.138;2023-04-15T05:01:17;11.20;82.60
76172;DHT22;64929;51.178;4.138;2023-04-15T05:03:43;11.10;83.30
76172;DHT22;64929;51.178;4.138;2023-04-15T05:06:08;11.10;82.00
76172;DHT22;64929;51.178;4.138;2023-04-15T05:08:35;10.80;82.40
76172;DHT22;64929;51.178;4.138;2023-04-15T05:11:01;10.90;84.40
76172;DHT22;64929;51.178;4.138;2023-04-15T05:13:27;11.10;83.40
76172;DHT22;64929;51.178;4.138;2023-04-15T05:15:52;11.20;83.40
76172;DHT22;64929;51.178;4.138;2023-04-15T05:18:18;11.30;83.00
76172;DHT22;64929;51.178;4.138;2023-04-15T05:20:44;11.20;83.40
76172;DHT22;64929;51.178;4.138;2023-04-15T05:23:10;11.20;83.00
76172;DHT22;64929;51.178;4.138;2023-04-15T05:25:35;11.10;83.20
76172;DHT22;64929;51.178;4.138;2023-04-15T05:28:01;11.20;83.10
76172;DHT22;64929;51.178;4.138;2023-04-15T05:30:27;11.30;80.80
76172;DHT22;64929;51.178;4.138;2023-04-15T05:32:52;11.20;82.00
76172;DHT22;64929;51.178;4.138;2023-04-15T05:35:18;11.30;81.60
76172;DHT22;64929;51.178;4.138;2023-04-15T05:37:44;11.10;79.70
76172;DHT22;64929;51.178;4.138;2023-04-15T05:40:10;11.30;80.10
76172;DHT22;64929;51.178;4.138;2023-04-15T05:42:36;11.50;78.00
76172;DHT22;64929;51.178;4.138;2023-04-15T05:45:02;11.40;76.90
76172;DHT22;64929;51.178;4.138;2023-04-15T05:47:30;11.40;76.70
76172;DHT22;64929;51.178;4.138;2023-04-15T05:49:56;11.40;77.90
76172;DHT22;64929;51.178;4.138;2023-04-15T05:52:23;11.20;78.80
76172;DHT22;64929;51.178;4.138;2023-04-15T05:54:49;11.20;79.00
76172;DHT22;64929;51.178;4.138;2023-04-15T05:57:15;11.40;77.90
76172;DHT22;64929;51.178;4.138;2023-04-15T05:59:40;11.40;77.90
76172;DHT22;64929;51.178;4.138;2023-04-15T06:02:07;11.30;75.40
76172;DHT22;64929;51.178;4.138;2023-04-15T06:04:34;11.30;78.50
76172;DHT22;64929;51.178;4.138;2023-04-15T06:06:59;11.40;77.00
76172;DHT22;64929;51.178;4.138;2023-04-15T06:09:25;11.60;77.90
76172;DHT22;64929;51.178;4.138;2023-04-15T06:11:52;11.50;80.40
76172;DHT22;64929;51.178;4.138;2023-04-15T06:14:17;11.60;78.40
76172;DHT22;64929;51.178;4.138;2023-04-15T06:16:43;11.90;78.90
76172;DHT22;64929;51.178;4.138;2023-04-15T06:19:09;11.70;78.90
76172;DHT22;64929;51.178;4.138;2023-04-15T06:21:35;11.70;77.90
76172;DHT22;64929;51.178;4.138;2023-04-15T06:24:01;11.90;76.60
76172;DHT22;64929;51.178;4.138;2023-04-15T06:26:27;12.10;75.80
76172;DHT22;64929;51.178;4.138;2023-04-15T06:28:53;12.20;77.20
76172;DHT22;64929;51.178;4.138;2023-04-15T06:31:18;12.20;75.50
76172;DHT22;64929;51.178;4.138;2023-04-15T06:33:44;12.20;75.30
76172;DHT22;64929;51.178;4.138;2023-04-15T06:36:10;12.30;75.90
76172;DHT22;64929;51.178;4.138;2023-04-15T06:38:35;12.20;76.60
76172;DHT22;64929;51.178;4.138;2023-04-15T06:41:02;12.30;74.40
76172;DHT22;64929;51.178;4.138;2023-04-15T06:43:28;12.20;74.60
76172;DHT22;64929;51.178;4.138;2023-04-15T06:45:54;12.20;73.80
76172;DHT22;64929;51.178;4.138;2023-04-15T06:48:21;12.20;73.60
76172;DHT22;64929;51.178;4.138;2023-04-15T06:50:48;12.20;73.50
76172;DHT22;64929;51.178;4.138;2023-04-15T06:53:14;12.10;72.90
76172;DHT22;64929;51.178;4.138;2023-04-15T06:55:40;12.10;72.40
76172;DHT22;64929;51.178;4.138;2023-04-15T06:58:06;11.90;72.90
76172;DHT22;64929;51.178;4.138;2023-04-15T07:00:32;11.90;73.30
76172;DHT22;64929;51.178;4.138;2023-04-15T07:02:59;11.90;71.20
76172;DHT22;64929;51.178;4.138;2023-04-15T07:05:28;12.10;72.90
76172;DHT22;64929;51.178;4.138;2023-04-15T07:07:55;12.10;71.60
76172;DHT22;64929;51.178;4.138;2023-04-15T07:10:21;12.20;70.80
76172;DHT22;64929;51.178;4.138;2023-04-15T07:12:47;12.20;71.00
76172;DHT22;64929;51.178;4.138;2023-04-15T07:15:13;12.30;69.90
76172;DHT22;64929;51.178;4.138;2023-04-15T07:17:40;12.40;69.50
76172;DHT22;64929;51.178;4.138;2023-04-15T07:20:06;12.30;69.30
76172;DHT22;64929;51.178;4.138;2023-04-15T07:22:32;12.50;68.80
76172;DHT22;64929;51.178;4.138;2023-04-15T07:24:58;12.50;69.00
76172;DHT22;64929;51.178;4.138;2023-04-15T07:27:24;12.50;69.90
76172;DHT22;64929;51.178;4.138;2023-04-15T07:29:50;12.60;69.50
76172;DHT22;64929;51.178;4.138;2023-04-15T07:32:16;12.50;68.10
76172;DHT22;64929;51.178;4.138;2023-04-15T07:34:43;12.50;69.20
76172;DHT22;64929;51.178;4.138;2023-04-15T07:37:09;12.50;69.60
76172;DHT22;64929;51.178;4.138;2023-04-15T07:39:34;12.50;68.00
76172;DHT22;64929;51.178;4.138;2023-04-15T07:42:01;12.40;69.40
76172;DHT22;64929;51.178;4.138;2023-04-15T07:44:28;12.40;69.30
76172;DHT22;64929;51.178;4.138;2023-04-15T07:46:54;12.30;68.80
76172;DHT22;64929;51.178;4.138;2023-04-15T07:49:20;12.40;69.30
76172;DHT22;64929;51.178;4.138;2023-04-15T07:51:46;12.60;70.00
76172;DHT22;64929;51.178;4.138;2023-04-15T07:54:13;12.50;67.80
76172;DHT22;64929;51.178;4.138;2023-04-15T07:56:39;12.70;67.30
76172;DHT22;64929;51.178;4.138;2023-04-15T07:59:05;12.60;67.40
76172;DHT22;64929;51.178;4.138;2023-04-15T08:01:30;12.70;68.00
76172;DHT22;64929;51.178;4.138;2023-04-15T08:04:00;12.80;68.10
76172;DHT22;64929;51.178;4.138;2023-04-15T08:06:26;12.80;68.60
76172;DHT22;64929;51.178;4.138;2023-04-15T08:08:52;13.00;67.40
76172;DHT22;64929;51.178;4.138;2023-04-15T08:11:19;13.10;67.30
76172;DHT22;64929;51.178;4.138;2023-04-15T08:13:46;13.10;66.70
76172;DHT22;64929;51.178;4.138;2023-04-15T08:16:23;13.20;66.60
76172;DHT22;64929;51.178;4.138;2023-04-15T08:18:50;13.20;65.70
76172;DHT22;64929;51.178;4.138;2023-04-15T08:21:16;13.30;66.10
76172;DHT22;64929;51.178;4.138;2023-04-15T08:23:44;13.50;65.90
76172;DHT22;64929;51.178;4.138;2023-04-15T08:26:11;13.60;65.00
76172;DHT22;64929;51.178;4.138;2023-04-15T08:28:38;13.70;66.40
76172;DHT22;64929;51.178;4.138;2023-04-15T08:31:04;13.90;65.90
76172;DHT22;64929;51.178;4.138;2023-04-15T08:33:30;14.10;64.50
76172;DHT22;64929;51.178;4.138;2023-04-15T08:35:56;14.20;62.60
76172;DHT22;64929;51.178;4.138;2023-04-15T08:38:22;14.20;62.60
76172;DHT22;64929;51.178;4.138;2023-04-15T08:40:48;14.20;63.20
76172;DHT22;64929;51.178;4.138;2023-04-15T08:43:26;14.30;62.80
76172;DHT22;64929;51.178;4.138;2023-04-15T08:45:54;14.40;62.00
76172;DHT22;64929;51.178;4.138;2023-04-15T08:48:20;14.60;61.30
76172;DHT22;64929;51.178;4.138;2023-04-15T08:50:50;14.70;61.40
76172;DHT22;64929;51.178;4.138;2023-04-15T08:53:17;14.70;61.20
76172;DHT22;64929;51.178;4.138;2023-04-15T08:55:44;14.70;61.00
76172;DHT22;64929;51.178;4.138;2023-04-15T08:58:13;14.90;61.10
76172;DHT22;64929;51.178;4.138;2023-04-15T09:00:41;15.00;60.50
76172;DHT22;64929;51.178;4.138;2023-04-15T09:03:08;15.10;60.40
76172;DHT22;64929;51.178;4.138;2023-04-15T09:05:37;15.10;59.80
76172;DHT22;64929;51.178;4.138;2023-04-15T09:08:04;15.20;59.70
76172;DHT22;64929;51.178;4.138;2023-04-15T09:10:31;15.40;59.30
76172;DHT22;64929;51.178;4.138;2023-04-15T09:12:57;15.40;58.60
76172;DHT22;64929;51.178;4.138;2023-04-15T09:15:26;15.50;57.10
76172;DHT22;64929;51.178;4.138;2023-04-15T09:17:54;15.50;58.70
76172;DHT22;64929;51.178;4.138;2023-04-15T09:20:20;15.50;57.10
76172;DHT22;64929;51.178;4.138;2023-04-15T09:22:47;15.60;56.30
76172;DHT22;64929;51.178;4.138;2023-04-15T09:27:53;15.60;55.30
76172;DHT22;64929;51.178;4.138;2023-04-15T09:30:19;15.70;55.50
76172;DHT22;64929;51.178;4.138;2023-04-15T09:32:55;15.60;54.70
76172;DHT22;64929;51.178;4.138;2023-04-15T09:35:22;15.50;56.50
76172;DHT22;64929;51.178;4.138;2023-04-15T09:37:49;15.60;55.70
76172;DHT22;64929;51.178;4.138;2023-04-15T09:42:59;15.50;56.00
76172;DHT22;64929;51.178;4.138;2023-04-15T09:45:26;15.70;56.40
76172;DHT22;64929;51.178;4.138;2023-04-15T09:47:52;15.60;57.60
76172;DHT22;64929;51.178;4.138;2023-04-15T09:50:19;15.70;57.20
76172;DHT22;64929;51.178;4.138;2023-04-15T09:52:45;15.80;57.10
76172;DHT22;64929;51.178;4.138;2023-04-15T09:55:12;15.90;56.80
76172;DHT22;64929;51.178;4.138;2023-04-15T09:57:39;15.90;55.40
76172;DHT22;64929;51.178;4.138;2023-04-15T10:00:09;15.90;54.80
76172;DHT22;64929;51.178;4.138;2023-04-15T10:02:36;15.90;55.00
76172;DHT22;64929;51.178;4.138;2023-04-15T10:05:03;15.80;55.40
76172;DHT22;64929;51.178;4.138;2023-04-15T10:07:29;15.80;53.90
76172;DHT22;64929;51.178;4.138;2023-04-15T10:09:55;15.70;54.60
76172;DHT22;64929;51.178;4.138;2023-04-15T10:12:21;15.80;53.80
76172;DHT22;64929;51.178;4.138;2023-04-15T10:14:58;15.80;52.80
76172;DHT22;64929;51.178;4.138;2023-04-15T10:17:26;15.90;50.70
76172;DHT22;64929;51.178;4.138;2023-04-15T10:19:53;15.80;50.60
76172;DHT22;64929;51.178;4.138;2023-04-15T10:22:24;15.80;51.40
76172;DHT22;64929;51.178;4.138;2023-04-15T10:24:51;15.90;51.80
76172;DHT22;64929;51.178;4.138;2023-04-15T10:27:18;15.90;52.70
76172;DHT22;64929;51.178;4.138;2023-04-15T10:29:45;16.00;52.50
76172;DHT22;64929;51.178;4.138;2023-04-15T10:32:11;16.00;49.30
76172;DHT22;64929;51.178;4.138;2023-04-15T10:34:38;16.10;45.60
76172;DHT22;64929;51.178;4.138;2023-04-15T10:37:08;16.10;46.30
76172;DHT22;64929;51.178;4.138;2023-04-15T10:39:40;16.00;45.70
76172;DHT22;64929;51.178;4.138;2023-04-15T10:42:13;16.00;47.10
76172;DHT22;64929;51.178;4.138;2023-04-15T10:44:44;16.10;47.60
76172;DHT22;64929;51.178;4.138;2023-04-15T10:47:15;16.20;48.60
76172;DHT22;64929;51.178;4.138;2023-04-15T10:49:51;16.20;46.10
76172;DHT22;64929;51.178;4.138;2023-04-15T10:52:22;16.10;48.60
76172;DHT22;64929;51.178;4.138;2023-04-15T10:54:48;16.30;49.40
76172;DHT22;64929;51.178;4.138;2023-04-15T10:57:21;16.30;47.20
76172;DHT22;64929;51.178;4.138;2023-04-15T11:00:00;16.40;47.30
76172;DHT22;64929;51.178;4.138;2023-04-15T11:05:12;16.40;45.30
76172;DHT22;64929;51.178;4.138;2023-04-15T11:07:55;16.50;44.70
76172;DHT22;64929;51.178;4.138;2023-04-15T11:12:57;16.50;43.60
76172;DHT22;64929;51.178;4.138;2023-04-15T11:15:38;16.50;44.50
76172;DHT22;64929;51.178;4.138;2023-04-15T11:18:19;16.30;44.90
76172;DHT22;64929;51.178;4.138;2023-04-15T11:20:55;16.40;46.70
76172;DHT22;64929;51.178;4.138;2023-04-15T11:23:39;16.50;46.70
76172;DHT22;64929;51.178;4.138;2023-04-15T11:26:09;16.60;45.50
76172;DHT22;64929;51.178;4.138;2023-04-15T11:28:40;16.60;44.40
76172;DHT22;64929;51.178;4.138;2023-04-15T11:31:15;16.60;45.90
76172;DHT22;64929;51.178;4.138;2023-04-15T11:34:01;16.70;42.80
76172;DHT22;64929;51.178;4.138;2023-04-15T11:36:28;16.60;45.70
76172;DHT22;64929;51.178;4.138;2023-04-15T11:38:57;16.60;42.20
76172;DHT22;64929;51.178;4.138;2023-04-15T11:41:23;16.60;41.20
76172;DHT22;64929;51.178;4.138;2023-04-15T11:43:50;16.60;40.30
76172;DHT22;64929;51.178;4.138;2023-04-15T11:46:16;16.70;41.80
76172;DHT22;64929;51.178;4.138;2023-04-15T11:48:43;16.80;41.90
76172;DHT22;64929;51.178;4.138;2023-04-15T11:51:10;17.00;43.20
76172;DHT22;64929;51.178;4.138;2023-04-15T11:53:44;17.00;40.60
76172;DHT22;64929;51.178;4.138;2023-04-15T11:56:19;16.90;41.40
76172;DHT22;64929;51.178;4.138;2023-04-15T11:58:45;16.90;43.90
76172;DHT22;64929;51.178;4.138;2023-04-15T12:01:11;16.90;45.70
76172;DHT22;64929;51.178;4.138;2023-04-15T12:03:39;17.00;46.00
76172;DHT22;64929;51.178;4.138;2023-04-15T12:06:06;17.20;46.00
76172;DHT22;64929;51.178;4.138;2023-04-15T12:09:07;17.00;45.00
76172;DHT22;64929;51.178;4.138;2023-04-15T12:11:45;16.90;46.80
76172;DHT22;64929;51.178;4.138;2023-04-15T12:14:17;16.90;46.80
76172;DHT22;64929;51.178;4.138;2023-04-15T12:16:45;17.00;46.30
76172;DHT22;64929;51.178;4.138;2023-04-15T12:19:57;17.10;46.00
76172;DHT22;64929;51.178;4.138;2023-04-15T12:22:10;17.20;45.70
76172;DHT22;64929;51.178;4.138;2023-04-15T12:24:37;17.50;44.40
76172;DHT22;64929;51.178;4.138;2023-04-15T12:27:12;17.50;42.90
76172;DHT22;64929;51.178;4.138;2023-04-15T12:29:39;17.50;41.80
76172;DHT22;64929;51.178;4.138;2023-04-15T12:32:09;17.50;41.20
76172;DHT22;64929;51.178;4.138;2023-04-15T12:37:03;17.60;40.80
76172;DHT22;64929;51.178;4.138;2023-04-15T12:39:35;17.70;41.40
76172;DHT22;64929;51.178;4.138;2023-04-15T12:42:02;17.90;42.70
76172;DHT22;64929;51.178;4.138;2023-04-15T12:44:32;17.70;42.10
76172;DHT22;64929;51.178;4.138;2023-04-15T12:46:58;17.70;43.50
76172;DHT22;64929;51.178;4.138;2023-04-15T12:49:24;17.50;43.60
76172;DHT22;64929;51.178;4.138;2023-04-15T12:51:53;17.30;42.30
76172;DHT22;64929;51.178;4.138;2023-04-15T12:54:19;17.20;41.50
76172;DHT22;64929;51.178;4.138;2023-04-15T12:56:46;17.20;40.00
76172;DHT22;64929;51.178;4.138;2023-04-15T12:59:13;17.00;42.30
76172;DHT22;64929;51.178;4.138;2023-04-15T13:01:39;17.00;44.30
76172;DHT22;64929;51.178;4.138;2023-04-15T13:04:05;17.00;44.20
76172;DHT22;64929;51.178;4.138;2023-04-15T13:06:31;17.10;45.20
76172;DHT22;64929;51.178;4.138;2023-04-15T13:09:01;17.00;44.70
76172;DHT22;64929;51.178;4.138;2023-04-15T13:11:27;17.00;46.30
76172;DHT22;64929;51.178;4.138;2023-04-15T13:13:56;17.20;48.20
76172;DHT22;64929;51.178;4.138;2023-04-15T13:16:22;17.30;47.00
76172;DHT22;64929;51.178;4.138;2023-04-15T13:18:48;17.30;42.20
76172;DHT22;64929;51.178;4.138;2023-04-15T13:21:14;17.20;40.20
76172;DHT22;64929;51.178;4.138;2023-04-15T13:23:42;17.20;40.90
76172;DHT22;64929;51.178;4.138;2023-04-15T13:26:08;17.20;42.40
76172;DHT22;64929;51.178;4.138;2023-04-15T13:28:34;17.10;44.00
76172;DHT22;64929;51.178;4.138;2023-04-15T13:30:59;17.00;44.20
76172;DHT22;64929;51.178;4.138;2023-04-15T13:33:26;17.20;44.50
76172;DHT22;64929;51.178;4.138;2023-04-15T13:35:52;17.30;44.80
76172;DHT22;64929;51.178;4.138;2023-04-15T13:38:17;17.40;45.80
76172;DHT22;64929;51.178;4.138;2023-04-15T13:40:43;17.40;45.40
76172;DHT22;64929;51.178;4.138;2023-04-15T13:43:09;17.40;44.60
76172;DHT22;64929;51.178;4.138;2023-04-15T13:45:35;17.40;45.80
76172;DHT22;64929;51.178;4.138;2023-04-15T13:48:01;17.30;46.30
76172;DHT22;64929;51.178;4.138;2023-04-15T13:50:27;17.40;45.50
76172;DHT22;64929;51.178;4.138;2023-04-15T13:52:53;17.30;46.30
76172;DHT22;64929;51.178;4.138;2023-04-15T13:55:19;17.20;47.10
76172;DHT22;64929;51.178;4.138;2023-04-15T13:57:45;17.40;48.20
76172;DHT22;64929;51.178;4.138;2023-04-15T14:00:11;17.60;47.20
76172;DHT22;64929;51.178;4.138;2023-04-15T14:02:37;17.60;47.00
76172;DHT22;64929;51.178;4.138;2023-04-15T14:05:02;17.70;47.30
76172;DHT22;64929;51.178;4.138;2023-04-15T14:07:29;17.80;48.10
76172;DHT22;64929;51.178;4.138;2023-04-15T14:09:55;17.80;49.30
76172;DHT22;64929;51.178;4.138;2023-04-15T14:12:21;17.90;51.20
76172;DHT22;64929;51.178;4.138;2023-04-15T14:14:47;18.40;51.80
76172;DHT22;64929;51.178;4.138;2023-04-15T14:17:13;18.80;48.00
76172;DHT22;64929;51.178;4.138;2023-04-15T14:19:38;19.60;48.10
76172;DHT22;64929;51.178;4.138;2023-04-15T14:22:04;20.40;46.70
76172;DHT22;64929;51.178;4.138;2023-04-15T14:24:30;22.20;43.90
76172;DHT22;64929;51.178;4.138;2023-04-15T14:26:56;24.50;40.00
76172;DHT22;64929;51.178;4.138;2023-04-15T14:29:22;25.00;38.00
76172;DHT22;64929;51.178;4.138;2023-04-15T14:31:48;25.30;36.60
76172;DHT22;64929;51.178;4.138;2023-04-15T14:34:15;25.50;36.90
76172;DHT22;64929;51.178;4.138;2023-04-15T14:36:41;25.00;37.00
76172;DHT22;64929;51.178;4.138;2023-04-15T14:39:06;24.80;36.50
76172;DHT22;64929;51.178;4.138;2023-04-15T14:41:33;24.90;37.80
76172;DHT22;64929;51.178;4.138;2023-04-15T14:43:58;25.00;37.20
76172;DHT22;64929;51.178;4.138;2023-04-15T14:46:25;26.30;36.30
76172;DHT22;64929;51.178;4.138;2023-04-15T14:48:51;27.30;35.10
76172;DHT22;64929;51.178;4.138;2023-04-15T14:51:17;27.70;33.30
76172;DHT22;64929;51.178;4.138;2023-04-15T14:53:42;26.90;32.90
76172;DHT22;64929;51.178;4.138;2023-04-15T14:56:08;27.00;33.10
76172;DHT22;64929;51.178;4.138;2023-04-15T14:58:34;27.40;33.10
76172;DHT22;64929;51.178;4.138;2023-04-15T15:01:00;27.60;32.20
76172;DHT22;64929;51.178;4.138;2023-04-15T15:03:27;26.90;32.80
76172;DHT22;64929;51.178;4.138;2023-04-15T15:05:53;25.70;34.30
76172;DHT22;64929;51.178;4.138;2023-04-15T15:08:19;24.90;35.30
76172;DHT22;64929;51.178;4.138;2023-04-15T15:10:45;25.00;35.40
76172;DHT22;64929;51.178;4.138;2023-04-15T15:13:11;25.30;34.60
76172;DHT22;64929;51.178;4.138;2023-04-15T15:15:37;25.90;34.00
76172;DHT22;64929;51.178;4.138;2023-04-15T15:18:03;25.90;33.60
76172;DHT22;64929;51.178;4.138;2023-04-15T15:20:29;25.70;32.40
76172;DHT22;64929;51.178;4.138;2023-04-15T15:22:55;25.10;33.00
76172;DHT22;64929;51.178;4.138;2023-04-15T15:25:21;24.90;33.90
76172;DHT22;64929;51.178;4.138;2023-04-15T15:27:47;24.80;33.90
76172;DHT22;64929;51.178;4.138;2023-04-15T15:30:13;24.60;33.60
76172;DHT22;64929;51.178;4.138;2023-04-15T15:32:40;24.20;34.40
76172;DHT22;64929;51.178;4.138;2023-04-15T15:35:07;23.50;34.90
76172;DHT22;64929;51.178;4.138;2023-04-15T15:37:34;23.00;36.70
76172;DHT22;64929;51.178;4.138;2023-04-15T15:40:00;22.00;38.80
76172;DHT22;64929;51.178;4.138;2023-04-15T15:42:26;21.80;39.80